LVBMP SANT-ZZZ
Flight info
| Callsign | LVBMP |
|---|---|
| Flight time | N/A |
| Altitude | 4000 |
| Route | DCT |
| Aircraft | C208/L-SDFGRY/C |
Departure
| Time | 2026-05-03 21:15 |
|---|---|
| Airport | Teniente Benjamín Matienzo International Airport (SANT) |
Arrival
| Time | N/A |
|---|---|
| Airport | ZZZ |
| Time | Latitude | Longitude | Altitude | Speed | Heading |
|---|---|---|---|---|---|
| 2026-05-03 21:06 | -26.83642 | -65.10783 | 1491 ft | 0 kts | 280° |
| 2026-05-03 21:11 | -26.83648 | -65.10776 | 1488 ft | 2 kts | 360° |
| 2026-05-03 21:11 | -26.83642 | -65.10773 | 1486 ft | 0 kts | 33° |
| 2026-05-03 21:12 | -26.83621 | -65.10725 | 1485 ft | 15 kts | 48° |
| 2026-05-03 21:12 | -26.83471 | -65.10676 | 1491 ft | 29 kts | 32° |
| 2026-05-03 21:12 | -26.83295 | -65.10513 | 1489 ft | 35 kts | 40° |
| 2026-05-03 21:12 | -26.83142 | -65.10372 | 1491 ft | 20 kts | 38° |
| 2026-05-03 21:13 | -26.83096 | -65.10295 | 1484 ft | 7 kts | 155° |
| 2026-05-03 21:13 | -26.83112 | -65.10293 | 1486 ft | 0 kts | 187° |
| 2026-05-03 21:14 | -26.83158 | -65.10300 | 1488 ft | 30 kts | 189° |
| 2026-05-03 21:14 | -26.83571 | -65.10391 | 1499 ft | 88 kts | 190° |
| 2026-05-03 21:15 | -26.84202 | -65.10580 | 1786 ft | 96 kts | 215° |
| 2026-05-03 21:15 | -26.84489 | -65.11280 | 2034 ft | 117 kts | 269° |
| 2026-05-03 21:15 | -26.84251 | -65.12248 | 2222 ft | 140 kts | 287° |
| 2026-05-03 21:15 | -26.83961 | -65.13347 | 2402 ft | 152 kts | 284° |
| 2026-05-03 21:16 | -26.83690 | -65.14510 | 2654 ft | 156 kts | 284° |
| 2026-05-03 21:16 | -26.83428 | -65.15700 | 2901 ft | 158 kts | 284° |
| 2026-05-03 21:16 | -26.83260 | -65.16495 | 3073 ft | 159 kts | 283° |
| 2026-05-03 21:16 | -26.82994 | -65.18132 | 3343 ft | 165 kts | 280° |
| 2026-05-03 21:17 | -26.82870 | -65.19001 | 3430 ft | 170 kts | 279° |
| 2026-05-03 21:17 | -26.82723 | -65.20276 | 3795 ft | 158 kts | 277° |
| 2026-05-03 21:17 | -26.82618 | -65.21507 | 3986 ft | 165 kts | 276° |
| 2026-05-03 21:17 | -26.82387 | -65.22755 | 4169 ft | 163 kts | 300° |
| 2026-05-03 21:18 | -26.81529 | -65.23546 | 4123 ft | 172 kts | 342° |
| 2026-05-03 21:18 | -26.80355 | -65.23860 | 4105 ft | 173 kts | 348° |
| 2026-05-03 21:18 | -26.79323 | -65.24447 | 4178 ft | 170 kts | 316° |
| 2026-05-03 21:18 | -26.78794 | -65.25632 | 4202 ft | 171 kts | 288° |
| 2026-05-03 21:19 | -26.78499 | -65.26944 | 4144 ft | 174 kts | 283° |
| 2026-05-03 21:19 | -26.78308 | -65.28277 | 4141 ft | 175 kts | 278° |
| 2026-05-03 21:19 | -26.78205 | -65.29634 | 4144 ft | 176 kts | 270° |
| 2026-05-03 21:19 | -26.78650 | -65.30892 | 4004 ft | 184 kts | 222° |
| 2026-05-03 21:20 | -26.79807 | -65.31402 | 3977 ft | 178 kts | 190° |
| 2026-05-03 21:20 | -26.81017 | -65.31620 | 3838 ft | 177 kts | 182° |
| 2026-05-03 21:20 | -26.82093 | -65.31163 | 3597 ft | 161 kts | 131° |
| 2026-05-03 21:20 | -26.82525 | -65.30066 | 3083 ft | 155 kts | 102° |
| 2026-05-03 21:21 | -26.82718 | -65.28908 | 2745 ft | 145 kts | 97° |
| 2026-05-03 21:21 | -26.82552 | -65.27859 | 2595 ft | 136 kts | 59° |
| 2026-05-03 21:21 | -26.81845 | -65.27219 | 2488 ft | 128 kts | 19° |
| 2026-05-03 21:21 | -26.81005 | -65.27151 | 2441 ft | 114 kts | 347° |
| 2026-05-03 21:22 | -26.80332 | -65.27533 | 2330 ft | 106 kts | 310° |
| 2026-05-03 21:22 | -26.80001 | -65.28198 | 2272 ft | 90 kts | 282° |
| 2026-05-03 21:22 | -26.79912 | -65.28850 | 2188 ft | 81 kts | 271° |
| 2026-05-03 21:22 | -26.79825 | -65.29495 | 2093 ft | 83 kts | 277° |
| 2026-05-03 21:23 | -26.79732 | -65.30113 | 1941 ft | 79 kts | 276° |
| 2026-05-03 21:23 | -26.79638 | -65.30704 | 1856 ft | 68 kts | 275° |
| 2026-05-03 21:23 | -26.79582 | -65.31144 | 1899 ft | 43 kts | 279° |
| 2026-05-03 21:23 | -26.79543 | -65.31330 | 1915 ft | 9 kts | 281° |
| 2026-05-03 21:24 | -26.79539 | -65.31356 | 1917 ft | 1 kts | 280° |
| 2026-05-03 21:24 | -26.79535 | -65.31386 | 1912 ft | 5 kts | 279° |
| 2026-05-03 21:24 | -26.79551 | -65.31387 | 1914 ft | 6 kts | 151° |
| 2026-05-03 21:24 | -26.79563 | -65.31363 | 1912 ft | 0 kts | 99° |